Canton, North Carolina
Current Conditions -  °F | °C
As of 12:54 AM on Friday 19 Dec 2014 (Local Time) from KAVL Reporting Station
Few Clouds Few Clouds  
Wind Chill: 30°   Ceiling: Unl
Heat Index: 38°   Visibility: 10mi
Dew Point: 24°   Wind: 12mph
Humidity: 57%   Direction: 350°N
Pressure: 30.1"   Gusts: NA
Location:  35.53°N, 82.84°W
Report Text: KAVL 190554Z AUTO 35010KT 10SM FEW046 03/M04 A3010 RMK AO2 SLP192 T00331044 10061 20033 58004
Loading
Personal Weather Stations






























Interactive Weather Map New forecast layout! Learn more

10-Day Weather Forecast

Advertisements
Track Severe Weather on mobile